Flight Track Log - Related Links

Times and Time Zones

All times are in EST time to prevent confusion due to time zone crossing. See the N700EG flight status page for this flight to view local times or setup timezone preferences in your user account.

Time Position Orientation Groundspeed Altitude Reporting Facility
EST Latitude Longitude Course Direction KTS MPH feet Rate Location/Type
Tue 02:01:00 PM 26.6183 -77.3722 289° West 261 300 8,500  Level Miami Center
Tue 02:03:00 PM 26.6492 -77.4839 287° West 211 243 10,700 1,100 Climbing Miami Center
Tue 02:04:00 PM 26.6658 -77.5469 286° West 191 220 11,800 1,100 Climbing Miami Center
Tue 02:05:00 PM 26.6758 -77.5981 282° West 184 212 12,900 1,050 Climbing Miami Center
Tue 02:06:00 PM 26.5972 -77.4518 289° West  Level FlightAware Approximate
Tue 02:06:00 PM 26.6944 -77.6494 292° West 174 200 13,900  Level Miami Center
Tue 02:07:00 PM 26.7067 -77.7147 282° West 193 222 14,900 1,050 Climbing Miami Center
Tue 02:08:00 PM 26.7231 -77.7636 291° West 193 222 16,000 950 Climbing Miami Center
Tue 02:09:00 PM 26.7311 -77.8194 279° West 185 213 16,800 850 Climbing Miami Center
Tue 02:10:00 PM 26.7431 -77.8825 282° West 192 221 17,700 900 Climbing Miami Center
Tue 02:11:00 PM 26.7553 -77.9336 285° West 192 221 18,600 1,150 Climbing Miami Center
Tue 02:12:00 PM 26.7675 -77.9919 283° West 192 221 20,000 700 Climbing Miami Center
Tue 02:13:00 PM 26.7753 -78.0550 278° West 198 228 20,000  Level Miami Center
Tue 02:14:00 PM 26.7872 -78.1247 281° West 198 228 20,000  Level Miami Center
Tue 02:15:00 PM 26.8033 -78.1878 286° West 220 253 20,000  Level Miami Center
Tue 02:16:00 PM 26.8111 -78.2625 277° West 225 259 20,000  Level Miami Center
Tue 02:17:00 PM 26.8228 -78.3417 279° West 245 282 20,000  Level Miami Center
Tue 02:18:00 PM 26.8408 -78.4072 287° West 245 282 20,000  Level Miami Center
Tue 02:19:00 PM 26.8528 -78.4794 281° West 239 275 20,000  Level Miami Center
Tue 02:20:00 PM 26.8644 -78.5542 280° West 234 269 20,000  Level Miami Center
Tue 02:21:00 PM 26.8781 -78.6219 283° West 239 275 20,000  Level Miami Center
Tue 02:22:00 PM 26.8897 -78.6919 281° West 239 275 20,000  Level Miami Center
Tue 02:23:00 PM 26.9033 -78.7667 282° West 239 275 20,000  Level Miami Center
Tue 02:24:00 PM 26.9150 -78.8369 281° West 239 275 20,000  Level Miami Center
Tue 02:25:00 PM 26.9267 -78.9069 281° West 239 275 20,000  Level Miami Center
Tue 02:26:00 PM 26.9403 -78.9794 282° West 239 275 20,000  Level Miami Center
Tue 02:27:00 PM 26.9517 -79.0542 280° West 239 275 20,000  Level Miami Center
Tue 02:28:00 PM 26.9653 -79.1267 282° West 239 275 20,000  Level Miami Center
Tue 02:29:00 PM 26.9786 -79.2017 281° West 239 275 20,000 -50 Level Miami Center
Tue 02:30:00 PM 26.9919 -79.2742 282° West 245 282 19,900  Descending Miami Center
Tue 02:31:00 PM 27.0053 -79.3467 282° West 237 273 20,000  Climbing Miami Center
Tue 02:32:00 PM 27.0169 -79.4122 281° West 237 273 19,900  Descending Miami Center
Tue 02:33:00 PM 27.0303 -79.4825 282° West 237 273 20,000 50 Climbing Miami Center
Tue 02:34:00 PM 27.0392 -79.5642 277° West 237 273 20,000  Level Miami Center
Tue 02:35:00 PM 27.0544 -79.6369 283° West 237 273 20,000 -50 Level Miami Center
Tue 02:36:00 PM 27.0675 -79.7119 281° West 243 280 19,900 -50 Descending Miami Center
Tue 02:37:00 PM 27.0789 -79.7775 281° West 238 274 19,900  Level Miami Center
Tue 02:38:00 PM 27.0919 -79.8572 280° West 238 274 19,900  Level Miami Center
Tue 02:39:00 PM 27.0986 -79.9344 276° West 243 280 19,900  Level Miami Center
Tue 02:40:00 PM 27.1117 -80.0069 281° West 243 280 19,900  Level Miami Center
Tue 02:41:00 PM 27.1247 -80.0797 281° West 243 280 19,900  Level Miami Center
Tue 02:42:00 PM 27.1378 -80.1525 281° West 238 274 19,900 50 Level Miami Center
Tue 02:43:00 PM 27.1506 -80.2275 281° West 238 274 20,000  Climbing Miami Center
Tue 02:44:00 PM 27.1614 -80.3000 280° West 238 274 19,900  Descending Miami Center
Tue 02:45:00 PM 27.1722 -80.3706 280° West 238 274 20,000  Climbing Miami Center
Tue 02:46:00 PM 27.1850 -80.4433 281° West 238 274 19,900 -50 Descending Miami Center
Tue 02:47:00 PM 27.1978 -80.5183 281° West 238 274 19,900  Level Miami Center
Tue 02:48:00 PM 27.2106 -80.5889 282° West 238 274 19,900  Level Miami Center
Tue 02:49:00 PM 27.2211 -80.6639 279° West 238 274 19,900  Level Miami Center
Tue 02:50:00 PM 27.2300 -80.7225 280° West 238 274 19,900  Level Miami Center
Tue 02:51:00 PM 27.2444 -80.8094 281° West 238 274 19,900  Level Miami Center
Tue 02:52:00 PM 27.2550 -80.8822 279° West 238 274 19,900  Level Miami Center
Tue 02:53:00 PM 27.2675 -80.9528 281° West 238 274 19,900 50 Level Miami Center
Tue 02:54:00 PM 27.2800 -81.0256 281° West 238 274 20,000 50 Climbing Miami Center
Tue 02:55:00 PM 27.2908 -81.0867 281° West 233 268 20,000 -50 Level Miami Center
Tue 02:56:00 PM 27.3031 -81.1714 279° West 240 276 19,900 -150 Descending Miami Center
Tue 02:57:00 PM 27.3153 -81.2442 281° West 240 276 19,700 -600 Descending Miami Center
Tue 02:58:00 PM 27.3256 -81.3194 279° West 240 276 18,700 -1,100 Descending Miami Center
Tue 02:59:00 PM 27.3381 -81.3853 282° West 240 276 17,500 -1,350 Descending Miami Center
Tue 03:00:00 PM 27.3503 -81.4653 280° West 247 284 16,000 -1,250 Descending Miami Center
Tue 03:01:00 PM 27.3619 -81.5544 278° West 255 293 15,000 -1,200 Descending Miami Center
Tue 03:02:00 PM 27.3761 -81.6347 281° West 255 293 13,600 -1,250 Descending Miami Center
Tue 03:03:00 PM 27.3900 -81.7169 281° West 260 299 12,500 -1,300 Descending Miami Center
Tue 03:04:00 PM 27.3997 -81.7992 278° West 260 299 11,000 -1,350 Descending Miami Center
Tue 03:05:00 PM 27.4117 -81.8769 280° West 260 299 9,800 -1,400 Descending Miami Center
Tue 03:06:00 PM 27.4239 -81.9475 281° West 249 287 8,200 -950 Descending Miami Center
Tue 03:07:00 PM 27.4339 -82.0183 279° West 243 280 7,900 -100 Descending Miami Center
Tue 03:08:00 PM 27.4439 -82.0864 279° West 232 267 8,000 50 Climbing Miami Center
Tue 03:09:00 PM 27.4606 -82.1481 287° West 221 254 8,000  Level Miami Center
Tue 03:10:00 PM 27.5025 -82.1992 313° West 209 241 8,000  Level Miami Center
Tue 03:11:00 PM 27.5428 -82.2386 319° Northwest 209 241 8,000  Level Miami Center
Tue 03:12:00 PM 27.5861 -82.3014 308° West 224 258 8,000 -350 Level Miami Center
Tue 03:13:00 PM 27.6028 -82.3561 289° West 210 242 7,300 -1,300 Descending Miami Center
Tue 03:14:00 PM 27.6089 -82.4172 276° West 197 227 5,400 -1,489 Descending Miami Center
Tue 03:15:13 PM 27.6167 -82.5000 276° West 200 230 4,000 -632 Descending Tampa TRACON
Tue 03:16:13 PM 27.6333 -82.5500 291° West 185 213 4,000  Level Tampa TRACON
Tue 03:17:13 PM 27.6500 -82.6167 286° West 186 214 4,000  Level Tampa TRACON
Tue 03:18:13 PM 27.6667 -82.6667 291° West 188 216 4,000  Level Tampa TRACON
Tue 03:19:07 PM 27.7000 -82.7000 318° Northwest 200 230 4,000 -105 Level Tampa TRACON
Tue 03:20:07 PM 27.7500 -82.7167 344° North 203 234 3,800 -682 Descending Tampa TRACON
Tue 03:21:19 PM 27.8167 -82.7333 348° North 199 229 2,500 -1,048 Descending Tampa TRACON
Tue 03:22:13 PM 27.8667 -82.7333 360° North 192 221 1,600 -474 Descending Tampa TRACON
Tue 03:23:13 PM 27.9000 -82.7333 360° North 140 161 1,600 -55 Level Tampa TRACON
Tue 03:24:02 PM 27.9333 -82.7500 336° Northwest 125 144 1,500 -350 Descending Tampa TRACON
Tue 03:25:13 PM 27.9667 -82.7167 41° Northeast 136 157 900 -595 Descending Tampa TRACON
Tue 03:26:13 PM 27.9333 -82.7000 156° South 123 142 200 -700 Descending Tampa TRACON
Tue 03:28:00 PM 27.9100 -82.6875 119° Southeast  Level Estimated
Tue 03:35:00 PM 27.9100 -82.6875 119° Southeast  Level Estimated

Login

Don't have an account? Register now (free) for customized features, flight alerts, and more!